sensor_id;sensor_type;location;lat;lon;timestamp;P1;durP1;ratioP1;P2;durP2;ratioP2
24713;SDS011;12820;51.580;5.010;2023-04-03T00:01:52;11.85;;;5.75;;
24713;SDS011;12820;51.580;5.010;2023-04-03T00:06:55;11.95;;;5.72;;
24713;SDS011;12820;51.580;5.010;2023-04-03T00:11:57;13.27;;;4.75;;
24713;SDS011;12820;51.580;5.010;2023-04-03T00:16:59;8.98;;;4.70;;
24713;SDS011;12820;51.580;5.010;2023-04-03T00:22:01;11.55;;;5.47;;
24713;SDS011;12820;51.580;5.010;2023-04-03T00:27:03;10.25;;;4.80;;
24713;SDS011;12820;51.580;5.010;2023-04-03T00:32:06;8.75;;;4.72;;
24713;SDS011;12820;51.580;5.010;2023-04-03T00:37:08;8.30;;;4.90;;
24713;SDS011;12820;51.580;5.010;2023-04-03T00:42:10;11.05;;;5.20;;
24713;SDS011;12820;51.580;5.010;2023-04-03T00:47:13;13.23;;;5.35;;
24713;SDS011;12820;51.580;5.010;2023-04-03T00:52:19;9.50;;;5.07;;
24713;SDS011;12820;51.580;5.010;2023-04-03T00:57:24;9.48;;;5.05;;
24713;SDS011;12820;51.580;5.010;2023-04-03T01:02:27;8.70;;;4.28;;
24713;SDS011;12820;51.580;5.010;2023-04-03T01:07:30;8.55;;;3.80;;
24713;SDS011;12820;51.580;5.010;2023-04-03T01:12:34;7.65;;;3.78;;
24713;SDS011;12820;51.580;5.010;2023-04-03T01:17:46;10.07;;;3.33;;
24713;SDS011;12820;51.580;5.010;2023-04-03T01:28:05;8.50;;;3.08;;
24713;SDS011;12820;51.580;5.010;2023-04-03T01:33:09;6.18;;;3.28;;
24713;SDS011;12820;51.580;5.010;2023-04-03T01:38:12;6.68;;;3.20;;
24713;SDS011;12820;51.580;5.010;2023-04-03T01:43:14;6.45;;;3.03;;
24713;SDS011;12820;51.580;5.010;2023-04-03T01:48:16;8.00;;;3.40;;
24713;SDS011;12820;51.580;5.010;2023-04-03T01:53:18;8.45;;;2.90;;
24713;SDS011;12820;51.580;5.010;2023-04-03T01:58:20;5.68;;;2.90;;
24713;SDS011;12820;51.580;5.010;2023-04-03T02:03:24;6.05;;;2.50;;
24713;SDS011;12820;51.580;5.010;2023-04-03T02:08:27;6.60;;;3.28;;
24713;SDS011;12820;51.580;5.010;2023-04-03T02:13:29;8.10;;;3.35;;
24713;SDS011;12820;51.580;5.010;2023-04-03T02:18:32;7.63;;;2.92;;
24713;SDS011;12820;51.580;5.010;2023-04-03T02:23:34;8.02;;;3.00;;
24713;SDS011;12820;51.580;5.010;2023-04-03T02:28:38;10.90;;;3.13;;
24713;SDS011;12820;51.580;5.010;2023-04-03T02:33:41;8.95;;;3.35;;
24713;SDS011;12820;51.580;5.010;2023-04-03T02:38:45;5.85;;;3.10;;
24713;SDS011;12820;51.580;5.010;2023-04-03T02:43:47;8.07;;;3.15;;
24713;SDS011;12820;51.580;5.010;2023-04-03T02:48:51;7.43;;;2.80;;
24713;SDS011;12820;51.580;5.010;2023-04-03T02:53:54;8.90;;;3.38;;
24713;SDS011;12820;51.580;5.010;2023-04-03T02:59:00;8.90;;;3.80;;
24713;SDS011;12820;51.580;5.010;2023-04-03T03:04:03;6.32;;;3.25;;
24713;SDS011;12820;51.580;5.010;2023-04-03T03:09:06;6.82;;;2.90;;
24713;SDS011;12820;51.580;5.010;2023-04-03T03:14:08;7.32;;;3.42;;
24713;SDS011;12820;51.580;5.010;2023-04-03T03:19:10;8.93;;;3.90;;
24713;SDS011;12820;51.580;5.010;2023-04-03T03:24:12;7.45;;;3.90;;
24713;SDS011;12820;51.580;5.010;2023-04-03T03:29:14;7.60;;;3.38;;
24713;SDS011;12820;51.580;5.010;2023-04-03T03:34:17;7.55;;;3.22;;
24713;SDS011;12820;51.580;5.010;2023-04-03T03:39:19;10.15;;;3.55;;
24713;SDS011;12820;51.580;5.010;2023-04-03T03:44:22;8.60;;;3.75;;
24713;SDS011;12820;51.580;5.010;2023-04-03T03:49:24;8.60;;;3.80;;
24713;SDS011;12820;51.580;5.010;2023-04-03T03:54:29;11.55;;;3.58;;
24713;SDS011;12820;51.580;5.010;2023-04-03T03:59:32;10.90;;;3.35;;
24713;SDS011;12820;51.580;5.010;2023-04-03T04:04:35;8.85;;;3.28;;
24713;SDS011;12820;51.580;5.010;2023-04-03T04:09:39;6.72;;;3.17;;
24713;SDS011;12820;51.580;5.010;2023-04-03T04:14:43;7.93;;;3.63;;
24713;SDS011;12820;51.580;5.010;2023-04-03T04:19:50;9.88;;;3.20;;
24713;SDS011;12820;51.580;5.010;2023-04-03T04:24:52;7.63;;;3.45;;
24713;SDS011;12820;51.580;5.010;2023-04-03T04:29:54;6.47;;;3.58;;
24713;SDS011;12820;51.580;5.010;2023-04-03T04:34:58;11.27;;;3.90;;
24713;SDS011;12820;51.580;5.010;2023-04-03T04:40:02;10.10;;;3.25;;
24713;SDS011;12820;51.580;5.010;2023-04-03T04:45:05;10.23;;;3.33;;
24713;SDS011;12820;51.580;5.010;2023-04-03T04:50:08;8.05;;;3.10;;
24713;SDS011;12820;51.580;5.010;2023-04-03T04:55:11;5.43;;;3.35;;
24713;SDS011;12820;51.580;5.010;2023-04-03T05:00:14;9.57;;;3.55;;
24713;SDS011;12820;51.580;5.010;2023-04-03T05:05:17;8.60;;;3.30;;
24713;SDS011;12820;51.580;5.010;2023-04-03T05:10:19;7.22;;;3.00;;
24713;SDS011;12820;51.580;5.010;2023-04-03T05:15:22;8.77;;;3.40;;
24713;SDS011;12820;51.580;5.010;2023-04-03T05:20:24;5.82;;;3.10;;
24713;SDS011;12820;51.580;5.010;2023-04-03T05:25:27;8.50;;;2.88;;
24713;SDS011;12820;51.580;5.010;2023-04-03T05:30:31;7.88;;;2.78;;
24713;SDS011;12820;51.580;5.010;2023-04-03T05:35:35;7.60;;;2.80;;
24713;SDS011;12820;51.580;5.010;2023-04-03T05:40:43;8.15;;;3.20;;
24713;SDS011;12820;51.580;5.010;2023-04-03T05:45:47;9.63;;;2.75;;
24713;SDS011;12820;51.580;5.010;2023-04-03T05:50:50;8.52;;;2.90;;
24713;SDS011;12820;51.580;5.010;2023-04-03T05:55:57;6.35;;;2.47;;
24713;SDS011;12820;51.580;5.010;2023-04-03T06:01:00;12.38;;;3.05;;
24713;SDS011;12820;51.580;5.010;2023-04-03T06:06:04;6.70;;;2.97;;
24713;SDS011;12820;51.580;5.010;2023-04-03T06:11:07;9.15;;;2.90;;
24713;SDS011;12820;51.580;5.010;2023-04-03T06:16:12;8.05;;;2.40;;
24713;SDS011;12820;51.580;5.010;2023-04-03T06:21:17;7.57;;;2.90;;
24713;SDS011;12820;51.580;5.010;2023-04-03T06:26:19;9.95;;;3.30;;
24713;SDS011;12820;51.580;5.010;2023-04-03T06:31:22;8.70;;;2.70;;
24713;SDS011;12820;51.580;5.010;2023-04-03T06:36:24;7.97;;;2.70;;
24713;SDS011;12820;51.580;5.010;2023-04-03T06:41:27;7.22;;;2.83;;
24713;SDS011;12820;51.580;5.010;2023-04-03T06:46:29;9.50;;;2.70;;
24713;SDS011;12820;51.580;5.010;2023-04-03T06:51:32;6.20;;;2.97;;
24713;SDS011;12820;51.580;5.010;2023-04-03T06:56:35;9.63;;;3.30;;
24713;SDS011;12820;51.580;5.010;2023-04-03T07:01:37;8.18;;;2.63;;
24713;SDS011;12820;51.580;5.010;2023-04-03T07:06:39;6.55;;;2.60;;
24713;SDS011;12820;51.580;5.010;2023-04-03T07:11:42;10.82;;;2.90;;
24713;SDS011;12820;51.580;5.010;2023-04-03T07:16:44;7.97;;;2.67;;
24713;SDS011;12820;51.580;5.010;2023-04-03T07:21:46;7.35;;;2.40;;
24713;SDS011;12820;51.580;5.010;2023-04-03T07:26:49;8.85;;;2.42;;
24713;SDS011;12820;51.580;5.010;2023-04-03T07:31:52;8.05;;;2.55;;
24713;SDS011;12820;51.580;5.010;2023-04-03T07:36:54;7.65;;;2.50;;
24713;SDS011;12820;51.580;5.010;2023-04-03T07:41:56;6.93;;;2.50;;
24713;SDS011;12820;51.580;5.010;2023-04-03T07:46:59;8.80;;;2.40;;
24713;SDS011;12820;51.580;5.010;2023-04-03T07:52:01;6.43;;;2.20;;
24713;SDS011;12820;51.580;5.010;2023-04-03T07:57:06;10.23;;;2.60;;
24713;SDS011;12820;51.580;5.010;2023-04-03T08:02:09;7.90;;;2.30;;
24713;SDS011;12820;51.580;5.010;2023-04-03T08:07:12;8.98;;;2.72;;
24713;SDS011;12820;51.580;5.010;2023-04-03T08:12:14;11.88;;;2.22;;
24713;SDS011;12820;51.580;5.010;2023-04-03T08:17:16;8.40;;;2.40;;
24713;SDS011;12820;51.580;5.010;2023-04-03T08:22:18;6.90;;;1.90;;
24713;SDS011;12820;51.580;5.010;2023-04-03T08:27:21;9.07;;;2.33;;
24713;SDS011;12820;51.580;5.010;2023-04-03T08:32:23;6.97;;;2.03;;
24713;SDS011;12820;51.580;5.010;2023-04-03T08:37:26;6.78;;;2.13;;
24713;SDS011;12820;51.580;5.010;2023-04-03T08:48:00;7.32;;;2.10;;
24713;SDS011;12820;51.580;5.010;2023-04-03T08:53:14;5.90;;;1.90;;
24713;SDS011;12820;51.580;5.010;2023-04-03T08:58:22;7.60;;;1.60;;
24713;SDS011;12820;51.580;5.010;2023-04-03T09:03:29;6.70;;;1.60;;
24713;SDS011;12820;51.580;5.010;2023-04-03T09:08:33;5.03;;;1.30;;
24713;SDS011;12820;51.580;5.010;2023-04-03T09:18:52;6.53;;;1.40;;
24713;SDS011;12820;51.580;5.010;2023-04-03T09:24:17;5.63;;;1.45;;
24713;SDS011;12820;51.580;5.010;2023-04-03T09:29:23;3.75;;;1.00;;
24713;SDS011;12820;51.580;5.010;2023-04-03T09:34:35;3.90;;;1.10;;
24713;SDS011;12820;51.580;5.010;2023-04-03T09:39:53;4.95;;;1.02;;
24713;SDS011;12820;51.580;5.010;2023-04-03T09:44:58;2.75;;;0.90;;
24713;SDS011;12820;51.580;5.010;2023-04-03T09:55:22;5.10;;;1.10;;
24713;SDS011;12820;51.580;5.010;2023-04-03T10:00:36;5.78;;;1.10;;
24713;SDS011;12820;51.580;5.010;2023-04-03T10:05:40;4.00;;;1.00;;
24713;SDS011;12820;51.580;5.010;2023-04-03T10:10:46;3.53;;;1.10;;
24713;SDS011;12820;51.580;5.010;2023-04-03T10:15:51;2.17;;;0.75;;
24713;SDS011;12820;51.580;5.010;2023-04-03T10:21:02;3.50;;;1.10;;
24713;SDS011;12820;51.580;5.010;2023-04-03T10:37:35;2.80;;;0.77;;
24713;SDS011;12820;51.580;5.010;2023-04-03T10:43:02;5.63;;;1.10;;
24713;SDS011;12820;51.580;5.010;2023-04-03T10:53:44;4.07;;;0.60;;
24713;SDS011;12820;51.580;5.010;2023-04-03T10:58:56;2.00;;;0.60;;
24713;SDS011;12820;51.580;5.010;2023-04-03T11:04:09;4.63;;;0.70;;
24713;SDS011;12820;51.580;5.010;2023-04-03T11:09:26;3.25;;;0.60;;
24713;SDS011;12820;51.580;5.010;2023-04-03T11:14:31;3.03;;;0.77;;
24713;SDS011;12820;51.580;5.010;2023-04-03T11:19:45;3.28;;;0.75;;
24713;SDS011;12820;51.580;5.010;2023-04-03T11:31:13;1.65;;;0.40;;
24713;SDS011;12820;51.580;5.010;2023-04-03T11:41:31;1.65;;;0.40;;
24713;SDS011;12820;51.580;5.010;2023-04-03T11:46:49;2.00;;;0.50;;
24713;SDS011;12820;51.580;5.010;2023-04-03T11:51:57;2.88;;;0.57;;
24713;SDS011;12820;51.580;5.010;2023-04-03T11:56:59;2.80;;;0.50;;
24713;SDS011;12820;51.580;5.010;2023-04-03T12:02:02;2.80;;;0.77;;
24713;SDS011;12820;51.580;5.010;2023-04-03T12:07:13;3.15;;;0.70;;
24713;SDS011;12820;51.580;5.010;2023-04-03T12:12:29;2.60;;;0.73;;
24713;SDS011;12820;51.580;5.010;2023-04-03T12:17:38;3.80;;;0.90;;
24713;SDS011;12820;51.580;5.010;2023-04-03T12:22:58;3.33;;;0.65;;
24713;SDS011;12820;51.580;5.010;2023-04-03T12:28:24;3.15;;;0.90;;
24713;SDS011;12820;51.580;5.010;2023-04-03T12:39:03;3.33;;;0.70;;
24713;SDS011;12820;51.580;5.010;2023-04-03T12:54:37;4.82;;;0.70;;
24713;SDS011;12820;51.580;5.010;2023-04-03T12:59:44;2.78;;;0.70;;
24713;SDS011;12820;51.580;5.010;2023-04-03T13:04:48;2.80;;;0.90;;
24713;SDS011;12820;51.580;5.010;2023-04-03T13:10:01;2.55;;;0.73;;
24713;SDS011;12820;51.580;5.010;2023-04-03T13:15:21;3.67;;;0.85;;
24713;SDS011;12820;51.580;5.010;2023-04-03T13:20:29;2.67;;;0.88;;
24713;SDS011;12820;51.580;5.010;2023-04-03T13:25:36;4.20;;;1.10;;
24713;SDS011;12820;51.580;5.010;2023-04-03T13:41:21;4.35;;;1.20;;
24713;SDS011;12820;51.580;5.010;2023-04-03T13:46:27;4.00;;;1.08;;
24713;SDS011;12820;51.580;5.010;2023-04-03T13:51:30;3.75;;;1.10;;
24713;SDS011;12820;51.580;5.010;2023-04-03T14:01:41;4.68;;;0.90;;
24713;SDS011;12820;51.580;5.010;2023-04-03T14:06:48;6.85;;;1.35;;
24713;SDS011;12820;51.580;5.010;2023-04-03T14:11:52;4.38;;;1.17;;
24713;SDS011;12820;51.580;5.010;2023-04-03T14:16:59;4.00;;;1.15;;
24713;SDS011;12820;51.580;5.010;2023-04-03T14:22:10;4.43;;;1.10;;
24713;SDS011;12820;51.580;5.010;2023-04-03T14:27:21;13.90;;;1.30;;
24713;SDS011;12820;51.580;5.010;2023-04-03T14:32:26;3.50;;;1.10;;
24713;SDS011;12820;51.580;5.010;2023-04-03T14:37:29;3.17;;;1.10;;
24713;SDS011;12820;51.580;5.010;2023-04-03T14:42:33;5.07;;;1.30;;
24713;SDS011;12820;51.580;5.010;2023-04-03T14:47:40;13.80;;;8.30;;
24713;SDS011;12820;51.580;5.010;2023-04-03T14:53:01;5.15;;;0.95;;
24713;SDS011;12820;51.580;5.010;2023-04-03T14:58:04;8.15;;;1.42;;
24713;SDS011;12820;51.580;5.010;2023-04-03T15:03:09;6.07;;;1.33;;
24713;SDS011;12820;51.580;5.010;2023-04-03T15:13:25;4.50;;;1.50;;
24713;SDS011;12820;51.580;5.010;2023-04-03T15:18:27;11.00;;;1.30;;
24713;SDS011;12820;51.580;5.010;2023-04-03T15:23:39;5.28;;;1.27;;
24713;SDS011;12820;51.580;5.010;2023-04-03T15:28:41;3.25;;;1.15;;
24713;SDS011;12820;51.580;5.010;2023-04-03T15:33:45;5.82;;;1.35;;
24713;SDS011;12820;51.580;5.010;2023-04-03T15:38:47;5.32;;;1.40;;
24713;SDS011;12820;51.580;5.010;2023-04-03T15:43:49;5.57;;;0.98;;
24713;SDS011;12820;51.580;5.010;2023-04-03T15:48:52;4.15;;;1.25;;
24713;SDS011;12820;51.580;5.010;2023-04-03T15:53:54;4.38;;;1.55;;
24713;SDS011;12820;51.580;5.010;2023-04-03T15:58:56;4.10;;;1.40;;
24713;SDS011;12820;51.580;5.010;2023-04-03T16:03:58;11.02;;;1.52;;
24713;SDS011;12820;51.580;5.010;2023-04-03T16:09:00;290.05;;;10.65;;
24713;SDS011;12820;51.580;5.010;2023-04-03T16:14:02;15.48;;;1.52;;
24713;SDS011;12820;51.580;5.010;2023-04-03T16:19:05;20.35;;;1.85;;
24713;SDS011;12820;51.580;5.010;2023-04-03T16:24:08;5.75;;;1.95;;
24713;SDS011;12820;51.580;5.010;2023-04-03T16:29:10;3.75;;;1.50;;
24713;SDS011;12820;51.580;5.010;2023-04-03T16:34:12;5.70;;;1.58;;
24713;SDS011;12820;51.580;5.010;2023-04-03T16:39:15;5.45;;;1.30;;
24713;SDS011;12820;51.580;5.010;2023-04-03T16:44:18;4.47;;;1.42;;
24713;SDS011;12820;51.580;5.010;2023-04-03T16:49:20;4.28;;;1.40;;
24713;SDS011;12820;51.580;5.010;2023-04-03T16:54:22;21.25;;;1.77;;
24713;SDS011;12820;51.580;5.010;2023-04-03T16:59:24;5.10;;;1.50;;
24713;SDS011;12820;51.580;5.010;2023-04-03T17:04:27;7.13;;;1.80;;
24713;SDS011;12820;51.580;5.010;2023-04-03T17:09:29;8.35;;;2.28;;
24713;SDS011;12820;51.580;5.010;2023-04-03T17:14:31;16.88;;;1.80;;
24713;SDS011;12820;51.580;5.010;2023-04-03T17:19:34;8.60;;;1.67;;
24713;SDS011;12820;51.580;5.010;2023-04-03T17:24:38;4.72;;;1.38;;
24713;SDS011;12820;51.580;5.010;2023-04-03T17:29:41;7.50;;;1.75;;
24713;SDS011;12820;51.580;5.010;2023-04-03T17:34:45;7.32;;;1.60;;
24713;SDS011;12820;51.580;5.010;2023-04-03T17:39:47;7.18;;;1.55;;
24713;SDS011;12820;51.580;5.010;2023-04-03T17:44:50;6.28;;;1.75;;
24713;SDS011;12820;51.580;5.010;2023-04-03T17:49:52;6.38;;;1.80;;
24713;SDS011;12820;51.580;5.010;2023-04-03T17:54:54;7.25;;;1.90;;
24713;SDS011;12820;51.580;5.010;2023-04-03T17:59:56;5.22;;;1.90;;
24713;SDS011;12820;51.580;5.010;2023-04-03T18:04:59;6.35;;;1.48;;
24713;SDS011;12820;51.580;5.010;2023-04-03T18:10:01;4.70;;;1.65;;
24713;SDS011;12820;51.580;5.010;2023-04-03T18:15:09;6.47;;;1.55;;
24713;SDS011;12820;51.580;5.010;2023-04-03T18:20:12;6.22;;;2.05;;
24713;SDS011;12820;51.580;5.010;2023-04-03T18:25:16;5.25;;;1.70;;
24713;SDS011;12820;51.580;5.010;2023-04-03T18:30:18;4.63;;;1.60;;
24713;SDS011;12820;51.580;5.010;2023-04-03T18:35:21;5.90;;;2.03;;
24713;SDS011;12820;51.580;5.010;2023-04-03T18:40:23;7.03;;;2.15;;
24713;SDS011;12820;51.580;5.010;2023-04-03T18:45:25;6.72;;;2.22;;
24713;SDS011;12820;51.580;5.010;2023-04-03T18:50:28;8.85;;;2.10;;
24713;SDS011;12820;51.580;5.010;2023-04-03T18:55:30;6.72;;;2.22;;
24713;SDS011;12820;51.580;5.010;2023-04-03T19:00:32;6.28;;;1.95;;
24713;SDS011;12820;51.580;5.010;2023-04-03T19:05:35;7.07;;;2.17;;
24713;SDS011;12820;51.580;5.010;2023-04-03T19:10:38;11.40;;;2.33;;
24713;SDS011;12820;51.580;5.010;2023-04-03T19:15:40;6.25;;;2.22;;
24713;SDS011;12820;51.580;5.010;2023-04-03T19:20:43;7.68;;;2.70;;
24713;SDS011;12820;51.580;5.010;2023-04-03T19:25:45;7.43;;;2.33;;
24713;SDS011;12820;51.580;5.010;2023-04-03T19:30:47;5.47;;;2.35;;
24713;SDS011;12820;51.580;5.010;2023-04-03T19:35:49;8.20;;;2.28;;
24713;SDS011;12820;51.580;5.010;2023-04-03T19:40:51;7.90;;;2.58;;
24713;SDS011;12820;51.580;5.010;2023-04-03T19:45:54;7.55;;;2.22;;
24713;SDS011;12820;51.580;5.010;2023-04-03T19:50:56;6.05;;;2.50;;
24713;SDS011;12820;51.580;5.010;2023-04-03T19:55:58;8.25;;;2.38;;
24713;SDS011;12820;51.580;5.010;2023-04-03T20:01:01;7.88;;;2.30;;
24713;SDS011;12820;51.580;5.010;2023-04-03T20:06:03;6.68;;;2.08;;
24713;SDS011;12820;51.580;5.010;2023-04-03T20:11:06;7.22;;;2.78;;
24713;SDS011;12820;51.580;5.010;2023-04-03T20:16:08;7.53;;;2.60;;
24713;SDS011;12820;51.580;5.010;2023-04-03T20:21:11;6.88;;;2.85;;
24713;SDS011;12820;51.580;5.010;2023-04-03T20:26:21;7.35;;;2.20;;
24713;SDS011;12820;51.580;5.010;2023-04-03T20:31:25;5.70;;;2.30;;
24713;SDS011;12820;51.580;5.010;2023-04-03T20:36:28;5.50;;;2.05;;
24713;SDS011;12820;51.580;5.010;2023-04-03T20:41:32;8.27;;;2.83;;
24713;SDS011;12820;51.580;5.010;2023-04-03T20:46:36;7.28;;;2.85;;
24713;SDS011;12820;51.580;5.010;2023-04-03T20:51:53;6.60;;;2.42;;
24713;SDS011;12820;51.580;5.010;2023-04-03T20:56:55;10.50;;;2.60;;
24713;SDS011;12820;51.580;5.010;2023-04-03T21:01:57;7.85;;;2.60;;
24713;SDS011;12820;51.580;5.010;2023-04-03T21:23:49;8.10;;;2.70;;
24713;SDS011;12820;51.580;5.010;2023-04-03T21:28:52;8.38;;;2.95;;
24713;SDS011;12820;51.580;5.010;2023-04-03T21:33:54;10.32;;;3.00;;
24713;SDS011;12820;51.580;5.010;2023-04-03T21:38:56;7.15;;;2.70;;
24713;SDS011;12820;51.580;5.010;2023-04-03T21:43:59;8.75;;;2.63;;
24713;SDS011;12820;51.580;5.010;2023-04-03T21:49:02;14.88;;;2.33;;
24713;SDS011;12820;51.580;5.010;2023-04-03T21:54:04;8.93;;;2.83;;
24713;SDS011;12820;51.580;5.010;2023-04-03T21:59:06;10.73;;;3.05;;
24713;SDS011;12820;51.580;5.010;2023-04-03T22:04:09;8.13;;;2.85;;
24713;SDS011;12820;51.580;5.010;2023-04-03T22:09:11;7.97;;;2.70;;
24713;SDS011;12820;51.580;5.010;2023-04-03T22:14:14;11.55;;;4.05;;
24713;SDS011;12820;51.580;5.010;2023-04-03T22:19:16;9.73;;;3.80;;
24713;SDS011;12820;51.580;5.010;2023-04-03T22:24:18;10.80;;;2.83;;
24713;SDS011;12820;51.580;5.010;2023-04-03T22:29:21;7.00;;;2.75;;
24713;SDS011;12820;51.580;5.010;2023-04-03T22:34:23;5.93;;;2.60;;
24713;SDS011;12820;51.580;5.010;2023-04-03T22:39:25;7.75;;;2.33;;
24713;SDS011;12820;51.580;5.010;2023-04-03T22:44:27;8.02;;;2.08;;
24713;SDS011;12820;51.580;5.010;2023-04-03T22:49:37;9.15;;;2.97;;
24713;SDS011;12820;51.580;5.010;2023-04-03T22:54:40;7.55;;;2.53;;
24713;SDS011;12820;51.580;5.010;2023-04-03T22:59:42;5.93;;;2.58;;
24713;SDS011;12820;51.580;5.010;2023-04-03T23:04:44;7.88;;;2.70;;
24713;SDS011;12820;51.580;5.010;2023-04-03T23:09:47;8.93;;;2.65;;
24713;SDS011;12820;51.580;5.010;2023-04-03T23:14:49;9.90;;;2.78;;
24713;SDS011;12820;51.580;5.010;2023-04-03T23:19:51;6.30;;;2.67;;
24713;SDS011;12820;51.580;5.010;2023-04-03T23:24:53;6.65;;;2.80;;
24713;SDS011;12820;51.580;5.010;2023-04-03T23:29:55;9.60;;;3.00;;
24713;SDS011;12820;51.580;5.010;2023-04-03T23:34:57;9.40;;;3.03;;
24713;SDS011;12820;51.580;5.010;2023-04-03T23:39:59;8.82;;;2.92;;
24713;SDS011;12820;51.580;5.010;2023-04-03T23:45:03;6.78;;;2.50;;
24713;SDS011;12820;51.580;5.010;2023-04-03T23:50:05;12.43;;;3.40;;
24713;SDS011;12820;51.580;5.010;2023-04-03T23:55:07;7.03;;;2.83;;
